WAT5608 PHUP-PHOG
Flight info
| Callsign | WAT5608 |
|---|---|
| Flight time | 0h 28m |
| Altitude | 2500 |
| Route | DCT |
| Aircraft | P28R/L-SDFY/S |
Departure
| Time | 2026-04-29 01:09 |
|---|---|
| Airport | Upolu Airport (PHUP) |
Arrival
| Time | 2026-04-29 01:37 |
|---|---|
| Airport | Kahului International Airport (PHOG) |
| Time | Latitude | Longitude | Altitude | Speed | Heading |
|---|---|---|---|---|---|
| 2026-04-29 00:47 | 20.26507 | -155.85822 | 89 ft | 0 kts | 245° |
| 2026-04-29 00:54 | 20.26507 | -155.85821 | 91 ft | 0 kts | 245° |
| 2026-04-29 01:04 | 20.26507 | -155.85822 | 86 ft | 1 kts | 249° |
| 2026-04-29 01:04 | 20.26522 | -155.85848 | 90 ft | 11 kts | 298° |
| 2026-04-29 01:04 | 20.26512 | -155.85940 | 89 ft | 13 kts | 253° |
| 2026-04-29 01:05 | 20.26491 | -155.86027 | 90 ft | 12 kts | 258° |
| 2026-04-29 01:05 | 20.26475 | -155.86107 | 92 ft | 11 kts | 259° |
| 2026-04-29 01:05 | 20.26460 | -155.86181 | 93 ft | 10 kts | 257° |
| 2026-04-29 01:05 | 20.26443 | -155.86255 | 93 ft | 10 kts | 253° |
| 2026-04-29 01:06 | 20.26422 | -155.86325 | 94 ft | 10 kts | 251° |
| 2026-04-29 01:06 | 20.26400 | -155.86386 | 96 ft | 8 kts | 248° |
| 2026-04-29 01:06 | 20.26393 | -155.86433 | 98 ft | 5 kts | 290° |
| 2026-04-29 01:06 | 20.26419 | -155.86452 | 98 ft | 7 kts | 11° |
| 2026-04-29 01:07 | 20.26429 | -155.86431 | 97 ft | 5 kts | 79° |
| 2026-04-29 01:07 | 20.26439 | -155.86389 | 96 ft | 6 kts | 75° |
| 2026-04-29 01:07 | 20.26476 | -155.86223 | 93 ft | 47 kts | 77° |
| 2026-04-29 01:07 | 20.26594 | -155.85772 | 105 ft | 71 kts | 78° |
| 2026-04-29 01:08 | 20.26664 | -155.85253 | 210 ft | 72 kts | 82° |
| 2026-04-29 01:08 | 20.26761 | -155.84674 | 368 ft | 86 kts | 67° |
| 2026-04-29 01:08 | 20.27387 | -155.84526 | 216 ft | 122 kts | 336° |
| 2026-04-29 01:08 | 20.28008 | -155.85062 | 414 ft | 128 kts | 325° |
| 2026-04-29 01:09 | 20.28541 | -155.85754 | 683 ft | 123 kts | 310° |
| 2026-04-29 01:09 | 20.29069 | -155.86463 | 917 ft | 120 kts | 314° |
| 2026-04-29 01:09 | 20.29559 | -155.87223 | 1114 ft | 124 kts | 305° |
| 2026-04-29 01:09 | 20.29977 | -155.88028 | 1345 ft | 126 kts | 306° |
| 2026-04-29 01:10 | 20.30433 | -155.88806 | 1599 ft | 124 kts | 309° |
| 2026-04-29 01:10 | 20.30875 | -155.89606 | 1791 ft | 129 kts | 305° |
| 2026-04-29 01:10 | 20.31336 | -155.90450 | 1941 ft | 135 kts | 304° |
| 2026-04-29 01:10 | 20.31778 | -155.91323 | 2145 ft | 134 kts | 303° |
| 2026-04-29 01:11 | 20.32214 | -155.92192 | 2361 ft | 132 kts | 302° |
| 2026-04-29 01:11 | 20.32631 | -155.93072 | 2522 ft | 135 kts | 301° |
| 2026-04-29 01:11 | 20.33045 | -155.93999 | 2640 ft | 142 kts | 304° |
| 2026-04-29 01:11 | 20.33482 | -155.94963 | 2764 ft | 144 kts | 302° |
| 2026-04-29 01:12 | 20.33927 | -155.95933 | 2811 ft | 151 kts | 303° |
| 2026-04-29 01:12 | 20.34359 | -155.96975 | 2825 ft | 156 kts | 300° |
| 2026-04-29 01:12 | 20.34796 | -155.98082 | 2656 ft | 169 kts | 299° |
| 2026-04-29 01:12 | 20.35237 | -155.99253 | 2487 ft | 174 kts | 297° |
| 2026-04-29 01:13 | 20.35640 | -156.00470 | 2452 ft | 169 kts | 296° |
| 2026-04-29 01:13 | 20.36046 | -156.01617 | 2474 ft | 163 kts | 297° |
| 2026-04-29 01:13 | 20.36453 | -156.02737 | 2476 ft | 161 kts | 297° |
| 2026-04-29 01:13 | 20.36864 | -156.03820 | 2472 ft | 159 kts | 297° |
| 2026-04-29 01:14 | 20.37274 | -156.04911 | 2470 ft | 159 kts | 297° |
| 2026-04-29 01:14 | 20.37683 | -156.06001 | 2474 ft | 158 kts | 297° |
| 2026-04-29 01:14 | 20.38104 | -156.07076 | 2478 ft | 157 kts | 297° |
| 2026-04-29 01:14 | 20.38526 | -156.08146 | 2481 ft | 156 kts | 297° |
| 2026-04-29 01:15 | 20.38943 | -156.09217 | 2478 ft | 157 kts | 297° |
| 2026-04-29 01:15 | 20.39364 | -156.10293 | 2487 ft | 157 kts | 297° |
| 2026-04-29 01:15 | 20.39778 | -156.11364 | 2489 ft | 154 kts | 297° |
| 2026-04-29 01:15 | 20.40164 | -156.12401 | 2486 ft | 148 kts | 296° |
| 2026-04-29 01:16 | 20.40540 | -156.13406 | 2490 ft | 144 kts | 296° |
| 2026-04-29 01:16 | 20.40907 | -156.14393 | 2489 ft | 143 kts | 297° |
| 2026-04-29 01:16 | 20.41267 | -156.15371 | 2491 ft | 141 kts | 298° |
| 2026-04-29 01:16 | 20.41619 | -156.16350 | 2490 ft | 141 kts | 297° |
| 2026-04-29 01:17 | 20.41964 | -156.17329 | 2491 ft | 142 kts | 297° |
| 2026-04-29 01:17 | 20.42307 | -156.18320 | 2497 ft | 142 kts | 297° |
| 2026-04-29 01:17 | 20.42659 | -156.19302 | 2506 ft | 141 kts | 297° |
| 2026-04-29 01:17 | 20.43014 | -156.20282 | 2512 ft | 141 kts | 297° |
| 2026-04-29 01:18 | 20.43356 | -156.21269 | 2514 ft | 143 kts | 298° |
| 2026-04-29 01:18 | 20.44047 | -156.23279 | 2509 ft | 145 kts | 297° |
| 2026-04-29 01:18 | 20.44405 | -156.24283 | 2500 ft | 144 kts | 297° |
| 2026-04-29 01:19 | 20.44764 | -156.25279 | 2498 ft | 142 kts | 295° |
| 2026-04-29 01:19 | 20.45001 | -156.25917 | 2491 ft | 138 kts | 297° |
| 2026-04-29 01:19 | 20.45338 | -156.26861 | 2479 ft | 135 kts | 298° |
| 2026-04-29 01:19 | 20.45669 | -156.27787 | 2483 ft | 133 kts | 298° |
| 2026-04-29 01:20 | 20.45982 | -156.28716 | 2489 ft | 133 kts | 296° |
| 2026-04-29 01:20 | 20.46317 | -156.29629 | 2500 ft | 132 kts | 297° |
| 2026-04-29 01:20 | 20.46662 | -156.30542 | 2502 ft | 134 kts | 300° |
| 2026-04-29 01:20 | 20.46987 | -156.31480 | 2494 ft | 136 kts | 298° |
| 2026-04-29 01:21 | 20.47372 | -156.32387 | 2484 ft | 131 kts | 310° |
| 2026-04-29 01:21 | 20.47919 | -156.33139 | 2492 ft | 131 kts | 313° |
| 2026-04-29 01:21 | 20.48421 | -156.33954 | 2495 ft | 132 kts | 308° |
| 2026-04-29 01:21 | 20.48897 | -156.34788 | 2491 ft | 132 kts | 309° |
| 2026-04-29 01:22 | 20.49366 | -156.35624 | 2502 ft | 130 kts | 307° |
| 2026-04-29 01:22 | 20.49833 | -156.36460 | 2502 ft | 129 kts | 307° |
| 2026-04-29 01:22 | 20.50299 | -156.37269 | 2503 ft | 128 kts | 308° |
| 2026-04-29 01:22 | 20.50742 | -156.38094 | 2500 ft | 128 kts | 309° |
| 2026-04-29 01:23 | 20.51175 | -156.38907 | 2497 ft | 128 kts | 307° |
| 2026-04-29 01:23 | 20.51626 | -156.39729 | 2511 ft | 129 kts | 310° |
| 2026-04-29 01:23 | 20.52062 | -156.40578 | 2511 ft | 132 kts | 308° |
| 2026-04-29 01:23 | 20.52494 | -156.41445 | 2509 ft | 133 kts | 307° |
| 2026-04-29 01:24 | 20.52939 | -156.42311 | 2503 ft | 134 kts | 307° |
| 2026-04-29 01:24 | 20.53440 | -156.43122 | 2484 ft | 127 kts | 324° |
| 2026-04-29 01:24 | 20.54164 | -156.43562 | 2484 ft | 117 kts | 351° |
| 2026-04-29 01:24 | 20.54969 | -156.43662 | 2505 ft | 117 kts | 359° |
| 2026-04-29 01:25 | 20.55771 | -156.43840 | 2500 ft | 118 kts | 354° |
| 2026-04-29 01:25 | 20.56564 | -156.44062 | 2502 ft | 118 kts | 352° |
| 2026-04-29 01:25 | 20.57361 | -156.44271 | 2500 ft | 118 kts | 352° |
| 2026-04-29 01:25 | 20.58167 | -156.44465 | 2500 ft | 119 kts | 354° |
| 2026-04-29 01:26 | 20.58970 | -156.44684 | 2492 ft | 118 kts | 351° |
| 2026-04-29 01:26 | 20.59759 | -156.44913 | 2493 ft | 117 kts | 351° |
| 2026-04-29 01:26 | 20.60543 | -156.45133 | 2504 ft | 117 kts | 352° |
| 2026-04-29 01:26 | 20.61333 | -156.45347 | 2512 ft | 118 kts | 352° |
| 2026-04-29 01:27 | 20.62136 | -156.45553 | 2516 ft | 120 kts | 353° |
| 2026-04-29 01:27 | 20.62945 | -156.45786 | 2507 ft | 120 kts | 353° |
| 2026-04-29 01:27 | 20.63743 | -156.46031 | 2503 ft | 119 kts | 351° |
| 2026-04-29 01:27 | 20.64544 | -156.46263 | 2515 ft | 120 kts | 355° |
| 2026-04-29 01:28 | 20.65352 | -156.46499 | 2508 ft | 121 kts | 351° |
| 2026-04-29 01:28 | 20.66160 | -156.46735 | 2504 ft | 120 kts | 352° |
| 2026-04-29 01:28 | 20.66965 | -156.46962 | 2503 ft | 119 kts | 354° |
| 2026-04-29 01:28 | 20.67765 | -156.47212 | 2503 ft | 120 kts | 352° |
| 2026-04-29 01:29 | 20.68570 | -156.47450 | 2510 ft | 120 kts | 351° |
| 2026-04-29 01:29 | 20.69390 | -156.47666 | 2509 ft | 121 kts | 353° |
| 2026-04-29 01:29 | 20.70194 | -156.47891 | 2497 ft | 121 kts | 355° |
| 2026-04-29 01:29 | 20.71005 | -156.48127 | 2512 ft | 121 kts | 353° |
| 2026-04-29 01:30 | 20.71824 | -156.48350 | 2514 ft | 121 kts | 351° |
| 2026-04-29 01:30 | 20.72637 | -156.48557 | 2502 ft | 120 kts | 352° |
| 2026-04-29 01:30 | 20.73451 | -156.48783 | 2500 ft | 121 kts | 350° |
| 2026-04-29 01:30 | 20.74260 | -156.49015 | 2499 ft | 119 kts | 353° |
| 2026-04-29 01:31 | 20.75059 | -156.49243 | 2501 ft | 119 kts | 352° |
| 2026-04-29 01:31 | 20.75860 | -156.49457 | 2496 ft | 119 kts | 352° |
| 2026-04-29 01:31 | 20.76669 | -156.49631 | 2489 ft | 118 kts | 353° |
| 2026-04-29 01:31 | 20.77479 | -156.49806 | 2503 ft | 119 kts | 352° |
| 2026-04-29 01:32 | 20.78286 | -156.49984 | 2506 ft | 118 kts | 351° |
| 2026-04-29 01:32 | 20.79100 | -156.50131 | 2502 ft | 118 kts | 359° |
| 2026-04-29 01:32 | 20.79882 | -156.49900 | 2507 ft | 118 kts | 30° |
| 2026-04-29 01:32 | 20.80626 | -156.49527 | 2492 ft | 116 kts | 25° |
| 2026-04-29 01:33 | 20.81356 | -156.49231 | 2570 ft | 101 kts | 22° |
| 2026-04-29 01:33 | 20.81979 | -156.48890 | 2487 ft | 102 kts | 34° |
| 2026-04-29 01:33 | 20.82615 | -156.48504 | 2333 ft | 107 kts | 32° |
| 2026-04-29 01:33 | 20.83209 | -156.48047 | 2281 ft | 105 kts | 38° |
| 2026-04-29 01:34 | 20.83755 | -156.47558 | 2212 ft | 101 kts | 37° |
| 2026-04-29 01:34 | 20.84332 | -156.47082 | 2082 ft | 102 kts | 37° |
| 2026-04-29 01:34 | 20.84930 | -156.46634 | 1877 ft | 109 kts | 34° |
| 2026-04-29 01:34 | 20.85524 | -156.46200 | 1702 ft | 98 kts | 35° |
| 2026-04-29 01:35 | 20.86053 | -156.45803 | 1504 ft | 88 kts | 34° |
| 2026-04-29 01:35 | 20.86565 | -156.45425 | 1308 ft | 91 kts | 36° |
| 2026-04-29 01:35 | 20.87087 | -156.45035 | 1143 ft | 89 kts | 35° |
| 2026-04-29 01:35 | 20.87548 | -156.44661 | 914 ft | 78 kts | 34° |
| 2026-04-29 01:36 | 20.87973 | -156.44339 | 581 ft | 72 kts | 37° |
| 2026-04-29 01:36 | 20.88345 | -156.44036 | 329 ft | 61 kts | 33° |
| 2026-04-29 01:36 | 20.88707 | -156.43788 | 169 ft | 66 kts | 31° |
| 2026-04-29 01:36 | 20.89113 | -156.43492 | 73 ft | 74 kts | 35° |
| 2026-04-29 01:37 | 20.89512 | -156.43192 | 44 ft | 66 kts | 37° |
| 2026-04-29 01:37 | 20.89789 | -156.42982 | 39 ft | 31 kts | 32° |
| 2026-04-29 01:37 | 20.89959 | -156.42883 | 37 ft | 21 kts | 355° |
| 2026-04-29 01:37 | 20.90012 | -156.42942 | 38 ft | 0 kts | 286° |
| 2026-04-29 01:38 | 20.90012 | -156.42968 | 38 ft | 10 kts | 257° |
| 2026-04-29 01:38 | 20.89961 | -156.43022 | 38 ft | 10 kts | 214° |
| 2026-04-29 01:38 | 20.89904 | -156.43059 | 39 ft | 9 kts | 210° |
| 2026-04-29 01:38 | 20.89849 | -156.43098 | 38 ft | 9 kts | 216° |
| 2026-04-29 01:39 | 20.89803 | -156.43134 | 39 ft | 8 kts | 216° |
| 2026-04-29 01:39 | 20.89756 | -156.43169 | 39 ft | 8 kts | 212° |
| 2026-04-29 01:39 | 20.89709 | -156.43197 | 39 ft | 7 kts | 211° |
| 2026-04-29 01:39 | 20.89630 | -156.43262 | 39 ft | 16 kts | 234° |
| 2026-04-29 01:40 | 20.89665 | -156.43308 | 39 ft | 4 kts | 13° |
| 2026-04-29 01:40 | 20.89699 | -156.43297 | 39 ft | 10 kts | 11° |
| 2026-04-29 01:40 | 20.89715 | -156.43312 | 39 ft | 0 kts | 220° |